createdAt,value
2018-08-23T00:00:53.022Z,820.00
2018-08-23T00:01:54.399Z,818.00
2018-08-23T00:02:54.837Z,820.00
2018-08-23T00:03:55.176Z,819.00
2018-08-23T00:04:55.492Z,819.00
2018-08-23T00:05:56.690Z,820.00
2018-08-23T00:06:55.925Z,820.00
2018-08-23T00:07:56.295Z,819.00
2018-08-23T00:08:56.609Z,820.00
2018-08-23T00:09:56.895Z,820.00
2018-08-23T00:10:57.281Z,818.00
2018-08-23T00:11:57.578Z,820.00
2018-08-23T00:12:57.938Z,819.00
2018-08-23T00:13:58.269Z,820.00
2018-08-23T00:14:57.591Z,821.00
2018-08-23T00:15:58.927Z,821.00
2018-08-23T00:16:59.591Z,822.00
2018-08-23T00:17:59.891Z,821.00
2018-08-23T00:19:00.235Z,822.00
2018-08-23T00:20:00.530Z,821.00
2018-08-23T00:21:00.793Z,821.00
2018-08-23T00:22:01.030Z,820.00
2018-08-23T00:23:01.320Z,820.00
2018-08-23T00:24:01.800Z,822.00
2018-08-23T00:25:02.080Z,821.00
2018-08-23T00:26:02.556Z,821.00
2018-08-23T00:27:02.927Z,821.00
2018-08-23T00:28:02.105Z,821.00
2018-08-23T00:29:03.352Z,822.00
2018-08-23T00:30:03.602Z,821.00
2018-08-23T00:31:03.798Z,822.00
2018-08-23T00:32:04.163Z,821.00
2018-08-23T00:33:04.391Z,821.00
2018-08-23T00:34:04.599Z,822.00
2018-08-23T00:35:04.971Z,823.00
2018-08-23T00:36:05.222Z,822.00
2018-08-23T00:37:05.447Z,822.00
2018-08-23T00:38:05.734Z,822.00
2018-08-23T00:39:06.175Z,822.00
2018-08-23T00:40:06.431Z,823.00
2018-08-23T00:41:06.820Z,823.00
2018-08-23T00:42:07.038Z,822.00
2018-08-23T00:42:15.183Z,822.00
2018-08-23T00:43:16.799Z,822.00
2018-08-23T00:44:17.072Z,821.00
2018-08-23T00:45:17.707Z,822.00
2018-08-23T00:46:18.101Z,822.00
2018-08-23T00:47:18.339Z,821.00
2018-08-23T00:48:18.585Z,821.00
2018-08-23T00:49:18.916Z,823.00
2018-08-23T00:50:19.119Z,823.00
2018-08-23T00:51:19.477Z,822.00
2018-08-23T00:52:19.737Z,822.00
2018-08-23T00:53:20.313Z,822.00
2018-08-23T00:54:20.662Z,823.00
2018-08-23T00:55:19.817Z,823.00
2018-08-23T00:56:20.019Z,822.00
2018-08-23T00:57:21.296Z,824.00
2018-08-23T00:58:22.277Z,825.00
2018-08-23T00:59:22.434Z,823.00
2018-08-23T01:00:22.740Z,822.00
2018-08-23T01:01:22.965Z,822.00
2018-08-23T01:02:23.230Z,824.00
2018-08-23T01:03:23.660Z,822.00
2018-08-23T01:04:22.953Z,823.00
2018-08-23T01:05:23.101Z,822.00
2018-08-23T01:06:24.382Z,822.00
2018-08-23T01:07:24.602Z,821.00
2018-08-23T01:08:25.070Z,824.00
2018-08-23T01:09:25.426Z,823.00
2018-08-23T01:10:25.954Z,824.00
2018-08-23T01:11:26.205Z,824.00
2018-08-23T01:12:26.583Z,824.00
2018-08-23T01:13:26.925Z,824.00
2018-08-23T01:14:27.098Z,824.00
2018-08-23T01:15:27.274Z,824.00
2018-08-23T01:16:27.504Z,823.00
2018-08-23T01:17:27.733Z,823.00
2018-08-23T01:18:27.986Z,823.00
2018-08-23T01:19:28.194Z,824.00
2018-08-23T01:20:28.332Z,823.00
2018-08-23T01:21:28.550Z,824.00
2018-08-23T01:22:28.818Z,824.00
2018-08-23T01:23:29.080Z,823.00
2018-08-23T01:24:29.345Z,824.00
2018-08-23T01:25:29.530Z,824.00
2018-08-23T01:26:30.270Z,825.00
2018-08-23T01:27:30.935Z,824.00
2018-08-23T01:28:32.786Z,825.00
2018-08-23T01:29:32.101Z,825.00
2018-08-23T01:29:40.185Z,825.00
2018-08-23T01:30:41.313Z,826.00
2018-08-23T01:31:41.654Z,825.00
2018-08-23T01:32:41.903Z,824.00
2018-08-23T01:33:42.218Z,825.00
2018-08-23T01:34:42.429Z,814.00
2018-08-23T01:35:42.784Z,814.00
2018-08-23T01:36:43.559Z,814.00
2018-08-23T01:37:43.843Z,825.00
2018-08-23T01:38:44.257Z,825.00
2018-08-23T01:39:44.982Z,825.00
2018-08-23T01:40:45.201Z,826.00
2018-08-23T01:41:46.051Z,826.00
2018-08-23T01:42:46.247Z,826.00
2018-08-23T01:43:46.560Z,825.00
2018-08-23T01:44:45.799Z,831.00
2018-08-23T01:45:47.426Z,831.00
2018-08-23T01:46:48.022Z,832.00
2018-08-23T01:47:48.279Z,831.00
2018-08-23T01:48:48.660Z,831.00
2018-08-23T01:49:48.884Z,832.00
2018-08-23T01:50:49.721Z,832.00
2018-08-23T01:51:49.934Z,832.00
2018-08-23T01:52:50.141Z,831.00
2018-08-23T01:53:50.343Z,829.00
2018-08-23T01:54:50.720Z,829.00
2018-08-23T01:55:51.402Z,830.00
2018-08-23T01:56:51.662Z,831.00
2018-08-23T01:57:51.891Z,831.00
2018-08-23T01:58:52.087Z,831.00
2018-08-23T01:59:52.299Z,830.00
2018-08-23T02:00:52.530Z,828.00
2018-08-23T02:01:52.734Z,829.00
2018-08-23T02:02:53.046Z,832.00
2018-08-23T02:03:53.228Z,831.00
2018-08-23T02:04:53.490Z,829.00
2018-08-23T02:05:53.702Z,829.00
2018-08-23T02:06:54.120Z,831.00
2018-08-23T02:07:54.310Z,830.00
2018-08-23T02:08:54.546Z,831.00
2018-08-23T02:09:54.821Z,830.00
2018-08-23T02:10:55.096Z,829.00
2018-08-23T02:11:55.288Z,829.00
2018-08-23T02:12:04.579Z,829.00
2018-08-23T02:13:06.066Z,830.00
2018-08-23T02:14:06.338Z,831.00
2018-08-23T02:15:06.530Z,831.00
2018-08-23T02:16:07.154Z,830.00
2018-08-23T02:17:07.342Z,831.00
2018-08-23T02:18:07.483Z,830.00
2018-08-23T02:19:07.698Z,829.00
2018-08-23T02:20:08.020Z,829.00
2018-08-23T02:21:08.345Z,828.00
2018-08-23T02:22:08.737Z,830.00
2018-08-23T02:23:09.158Z,831.00
2018-08-23T02:24:09.372Z,830.00
2018-08-23T02:25:10.654Z,826.00
2018-08-23T02:26:10.006Z,831.00
2018-08-23T02:27:10.769Z,832.00
2018-08-23T02:28:11.003Z,833.00
2018-08-23T02:29:11.281Z,834.00
2018-08-23T02:30:11.671Z,834.00
2018-08-23T02:31:12.003Z,832.00
2018-08-23T02:32:12.282Z,832.00
2018-08-23T02:33:12.539Z,831.00
2018-08-23T02:34:12.958Z,832.00
2018-08-23T02:35:13.221Z,831.00
2018-08-23T02:36:13.497Z,831.00
2018-08-23T02:37:14.364Z,832.00
2018-08-23T02:38:14.609Z,832.00
2018-08-23T02:39:14.443Z,831.00
2018-08-23T02:40:15.902Z,833.00
2018-08-23T02:41:16.342Z,834.00
2018-08-23T02:42:16.573Z,835.00
2018-08-23T02:43:17.086Z,834.00
2018-08-23T02:44:17.345Z,833.00
2018-08-23T02:45:17.815Z,833.00
2018-08-23T02:46:18.630Z,833.00
2018-08-23T02:47:18.826Z,834.00
2018-08-23T02:48:19.170Z,834.00
2018-08-23T02:49:19.814Z,834.00
2018-08-23T02:50:20.073Z,833.00
2018-08-23T02:51:20.521Z,832.00
2018-08-23T02:52:20.982Z,833.00
2018-08-23T02:53:21.226Z,832.00
2018-08-23T02:54:21.568Z,832.00
2018-08-23T02:55:21.767Z,832.00
2018-08-23T02:56:22.085Z,831.00
2018-08-23T02:57:22.601Z,832.00
2018-08-23T02:57:30.596Z,832.00
2018-08-23T02:58:31.763Z,832.00
2018-08-23T02:59:31.988Z,833.00
2018-08-23T03:00:32.371Z,832.00
2018-08-23T03:01:31.695Z,832.00
2018-08-23T03:02:33.441Z,832.00
2018-08-23T03:03:34.354Z,832.00
2018-08-23T03:04:34.617Z,833.00
2018-08-23T03:05:34.978Z,833.00
2018-08-23T03:06:35.323Z,833.00
2018-08-23T03:07:35.788Z,832.00
2018-08-23T03:08:36.083Z,833.00
2018-08-23T03:09:37.475Z,832.00
2018-08-23T03:10:36.785Z,832.00
2018-08-23T03:11:37.070Z,832.00
2018-08-23T03:12:37.340Z,834.00
2018-08-23T03:13:37.934Z,833.00
2018-08-23T03:14:38.243Z,832.00
2018-08-23T03:15:39.069Z,832.00
2018-08-23T03:16:39.273Z,832.00
2018-08-23T03:17:39.541Z,833.00
2018-08-23T03:18:40.218Z,834.00
2018-08-23T03:19:40.464Z,834.00
2018-08-23T03:20:40.708Z,832.00
2018-08-23T03:21:41.116Z,832.00
2018-08-23T03:22:41.727Z,832.00
2018-08-23T03:23:42.082Z,833.00
2018-08-23T03:24:42.368Z,833.00
2018-08-23T03:25:42.611Z,835.00
2018-08-23T03:26:43.010Z,835.00
2018-08-23T03:27:43.398Z,835.00
2018-08-23T03:28:43.792Z,834.00
2018-08-23T03:29:44.204Z,834.00
2018-08-23T03:30:43.398Z,834.00
2018-08-23T03:31:44.613Z,833.00
2018-08-23T03:32:45.020Z,833.00
2018-08-23T03:33:45.640Z,834.00
2018-08-23T03:34:45.875Z,833.00
2018-08-23T03:35:45.331Z,833.00
2018-08-23T03:36:46.593Z,832.00
2018-08-23T03:37:47.047Z,832.00
2018-08-23T03:38:47.370Z,833.00
2018-08-23T03:39:47.632Z,833.00
2018-08-23T03:40:47.857Z,832.00
2018-08-23T03:41:48.150Z,832.00
2018-08-23T03:42:48.513Z,831.00
2018-08-23T03:43:47.710Z,831.00
2018-08-23T03:44:29.319Z,832.00
2018-08-23T03:45:29.498Z,832.00
2018-08-23T03:46:29.926Z,832.00
2018-08-23T03:47:30.103Z,830.00
2018-08-23T03:48:30.126Z,810.00
2018-08-23T03:49:30.489Z,831.00
2018-08-23T03:50:30.779Z,831.00
2018-08-23T03:51:31.042Z,832.00
2018-08-23T03:52:31.160Z,831.00
2018-08-23T03:53:31.075Z,832.00
2018-08-23T03:54:31.374Z,832.00
2018-08-23T03:55:32.591Z,832.00
2018-08-23T03:56:32.872Z,832.00
2018-08-23T03:57:33.115Z,832.00
2018-08-23T03:58:33.464Z,821.00
2018-08-23T03:59:34.158Z,821.00
2018-08-23T04:00:35.072Z,821.00
2018-08-23T04:01:35.387Z,835.00
2018-08-23T04:02:35.698Z,833.00
2018-08-23T04:03:35.887Z,835.00
2018-08-23T04:04:36.171Z,834.00
2018-08-23T04:05:36.410Z,833.00
2018-08-23T04:06:36.971Z,834.00
2018-08-23T04:07:37.796Z,834.00
2018-08-23T04:08:38.082Z,833.00
2018-08-23T04:09:38.772Z,832.00
2018-08-23T04:10:39.466Z,833.00
2018-08-23T04:11:39.794Z,833.00
2018-08-23T04:12:40.796Z,832.00
2018-08-23T04:13:41.029Z,832.00
2018-08-23T04:14:41.103Z,833.00
2018-08-23T04:15:41.299Z,833.00
2018-08-23T04:16:41.698Z,832.00
2018-08-23T04:17:41.953Z,834.00
2018-08-23T04:18:42.197Z,834.00
2018-08-23T04:19:42.463Z,832.00
2018-08-23T04:20:42.878Z,833.00
2018-08-23T04:21:43.189Z,833.00
2018-08-23T04:22:43.589Z,832.00
2018-08-23T04:23:42.774Z,832.00
2018-08-23T04:24:44.613Z,833.00
2018-08-23T04:25:44.853Z,833.00
2018-08-23T04:26:45.088Z,833.00
2018-08-23T04:27:45.632Z,832.00
2018-08-23T04:28:45.848Z,832.00
2018-08-23T04:29:46.281Z,832.00
2018-08-23T04:30:45.838Z,832.00
2018-08-23T04:31:47.097Z,832.00
2018-08-23T04:31:55.812Z,832.00
2018-08-23T04:32:56.164Z,832.00
2018-08-23T04:33:56.351Z,832.00
2018-08-23T04:34:56.635Z,832.00
2018-08-23T04:35:56.892Z,832.00
2018-08-23T04:36:57.233Z,832.00
2018-08-23T04:37:57.418Z,797.00
2018-08-23T04:38:57.884Z,833.00
2018-08-23T04:39:58.366Z,835.00
2018-08-23T04:40:58.638Z,835.00
2018-08-23T04:41:59.130Z,834.00
2018-08-23T04:42:59.423Z,834.00
2018-08-23T04:43:59.699Z,833.00
2018-08-23T04:44:59.782Z,832.00
2018-08-23T04:46:00.220Z,833.00
2018-08-23T04:47:00.633Z,834.00
2018-08-23T04:48:00.964Z,833.00
2018-08-23T04:49:01.359Z,832.00
2018-08-23T04:50:01.759Z,832.00
2018-08-23T04:51:02.107Z,834.00
2018-08-23T04:52:02.530Z,834.00
2018-08-23T04:53:03.221Z,833.00
2018-08-23T04:54:03.457Z,832.00
2018-08-23T04:55:03.788Z,833.00
2018-08-23T04:56:04.116Z,834.00
2018-08-23T04:57:04.342Z,834.00
2018-08-23T04:58:04.556Z,836.00
2018-08-23T04:59:04.829Z,835.00
2018-08-23T05:00:05.248Z,834.00
2018-08-23T05:01:06.081Z,834.00
2018-08-23T05:02:06.413Z,834.00
2018-08-23T05:03:06.865Z,834.00
2018-08-23T05:04:07.103Z,833.00
2018-08-23T05:05:06.565Z,833.00
2018-08-23T05:06:07.918Z,835.00
2018-08-23T05:07:08.196Z,825.00
2018-08-23T05:08:08.567Z,833.00
2018-08-23T05:09:08.994Z,833.00
2018-08-23T05:10:08.184Z,834.00
2018-08-23T05:11:09.495Z,834.00
2018-08-23T05:12:09.880Z,835.00
2018-08-23T05:13:10.176Z,834.00
2018-08-23T05:14:10.592Z,834.00
2018-08-23T05:15:10.143Z,835.00
2018-08-23T05:16:12.016Z,835.00
2018-08-23T05:17:12.256Z,835.00
2018-08-23T05:17:24.282Z,836.00
2018-08-23T05:18:25.446Z,840.00
2018-08-23T05:19:25.679Z,840.00
2018-08-23T05:20:26.048Z,837.00
2018-08-23T05:21:26.562Z,840.00
2018-08-23T05:22:31.855Z,829.00
2018-08-23T05:23:27.191Z,838.00
2018-08-23T05:24:27.686Z,838.00
2018-08-23T05:25:27.964Z,840.00
2018-08-23T05:26:28.234Z,841.00
2018-08-23T05:27:28.469Z,841.00
2018-08-23T05:28:28.798Z,840.00
2018-08-23T05:29:29.117Z,840.00
2018-08-23T05:30:29.529Z,841.00
2018-08-23T05:31:29.829Z,841.00
2018-08-23T05:32:30.182Z,840.00
2018-08-23T05:33:30.468Z,836.00
2018-08-23T05:34:30.772Z,836.00
2018-08-23T05:35:31.019Z,835.00
2018-08-23T05:36:31.265Z,834.00
2018-08-23T05:37:31.593Z,832.00
2018-08-23T05:38:31.895Z,832.00
2018-08-23T05:39:32.109Z,832.00
2018-08-23T05:40:32.346Z,831.00
2018-08-23T05:41:32.639Z,830.00
2018-08-23T05:42:32.901Z,831.00
2018-08-23T05:43:33.804Z,830.00
2018-08-23T05:44:34.040Z,829.00
2018-08-23T05:45:34.360Z,826.00
2018-08-23T05:46:34.857Z,825.00
2018-08-23T05:47:35.174Z,826.00
2018-08-23T05:48:34.412Z,826.00
2018-08-23T05:49:35.662Z,826.00
2018-08-23T05:50:35.995Z,825.00
2018-08-23T05:51:36.175Z,825.00
2018-08-23T05:52:36.445Z,825.00
2018-08-23T05:53:36.740Z,823.00
2018-08-23T05:54:37.046Z,824.00
2018-08-23T05:55:37.290Z,824.00
2018-08-23T05:56:37.571Z,823.00
2018-08-23T05:57:37.869Z,822.00
2018-08-23T05:58:38.058Z,821.00
2018-08-23T05:59:38.206Z,821.00
2018-08-23T06:00:38.460Z,822.00
2018-08-23T06:01:38.762Z,820.00
2018-08-23T06:01:47.457Z,818.00
2018-08-23T06:02:47.908Z,820.00
2018-08-23T06:03:47.197Z,818.00
2018-08-23T06:04:48.568Z,817.00
2018-08-23T06:05:48.933Z,816.00
2018-08-23T06:06:49.265Z,818.00
2018-08-23T06:07:49.579Z,814.00
2018-08-23T06:08:49.996Z,813.00
2018-08-23T06:09:50.283Z,813.00
2018-08-23T06:10:50.517Z,812.00
2018-08-23T06:11:50.604Z,813.00
2018-08-23T06:12:50.742Z,812.00
2018-08-23T06:13:50.931Z,812.00
2018-08-23T06:14:51.498Z,812.00
2018-08-23T06:15:51.749Z,802.00
2018-08-23T06:16:52.158Z,812.00
2018-08-23T06:17:52.448Z,810.00
2018-08-23T06:18:52.922Z,798.00
2018-08-23T06:19:53.429Z,799.00
2018-08-23T06:20:52.733Z,796.00
2018-08-23T06:21:54.008Z,805.00
2018-08-23T06:22:54.277Z,805.00
2018-08-23T06:23:54.576Z,802.00
2018-08-23T06:24:54.829Z,802.00
2018-08-23T06:25:55.514Z,801.00
2018-08-23T06:26:54.821Z,801.00
2018-08-23T06:27:56.394Z,802.00
2018-08-23T06:28:56.800Z,805.00
2018-08-23T06:29:57.519Z,806.00
2018-08-23T06:30:58.079Z,807.00
2018-08-23T06:31:58.347Z,806.00
2018-08-23T06:32:58.750Z,808.00
2018-08-23T06:33:57.893Z,807.00
2018-08-23T06:34:59.127Z,805.00
2018-08-23T06:35:59.357Z,805.00
2018-08-23T06:36:59.834Z,804.00
2018-08-23T06:38:00.289Z,806.00
2018-08-23T06:39:00.522Z,807.00
2018-08-23T06:40:00.855Z,810.00
2018-08-23T06:41:01.056Z,808.00
2018-08-23T06:42:01.389Z,808.00
2018-08-23T06:43:02.302Z,808.00
2018-08-23T06:44:02.539Z,811.00
2018-08-23T06:45:02.794Z,812.00
2018-08-23T06:46:03.170Z,810.00
2018-08-23T06:47:02.381Z,810.00
2018-08-23T06:48:03.836Z,808.00
2018-08-23T06:49:04.225Z,807.00
2018-08-23T06:50:04.501Z,811.00
2018-08-23T06:50:13.202Z,811.00
2018-08-23T06:51:14.494Z,811.00
2018-08-23T06:52:13.747Z,807.00
2018-08-23T06:53:14.985Z,807.00
2018-08-23T06:54:15.227Z,806.00
2018-08-23T06:55:15.605Z,806.00
2018-08-23T06:56:15.900Z,810.00
2018-08-23T06:57:16.208Z,813.00
2018-08-23T06:58:16.444Z,810.00
2018-08-23T06:59:16.802Z,806.00
2018-08-23T07:00:17.101Z,805.00
2018-08-23T07:01:17.430Z,802.00
2018-08-23T07:02:16.576Z,802.00
2018-08-23T07:03:17.776Z,802.00
2018-08-23T07:04:18.190Z,802.00
2018-08-23T07:05:18.734Z,805.00
2018-08-23T07:06:19.254Z,802.00
2018-08-23T07:07:19.610Z,805.00
2018-08-23T07:08:19.795Z,806.00
2018-08-23T07:09:20.176Z,802.00
2018-08-23T07:10:20.517Z,800.00
2018-08-23T07:11:20.875Z,798.00
2018-08-23T07:12:21.470Z,797.00
2018-08-23T07:13:22.053Z,798.00
2018-08-23T07:14:22.448Z,796.00
2018-08-23T07:15:23.003Z,794.00
2018-08-23T07:16:23.401Z,795.00
2018-08-23T07:17:24.050Z,793.00
2018-08-23T07:18:23.267Z,792.00
2018-08-23T07:19:24.710Z,792.00
2018-08-23T07:20:24.884Z,787.00
2018-08-23T07:21:25.192Z,786.00
2018-08-23T07:22:25.413Z,785.00
2018-08-23T07:23:25.819Z,784.00
2018-08-23T07:24:26.071Z,784.00
2018-08-23T07:25:26.410Z,783.00
2018-08-23T07:26:26.896Z,782.00
2018-08-23T07:27:26.079Z,782.00
2018-08-23T07:28:27.363Z,781.00
2018-08-23T07:29:27.601Z,778.00
2018-08-23T07:30:28.369Z,778.00
2018-08-23T07:31:28.794Z,778.00
2018-08-23T07:32:27.925Z,778.00
2018-08-23T07:33:29.691Z,780.00
2018-08-23T07:34:29.939Z,778.00
2018-08-23T07:35:30.276Z,778.00
2018-08-23T07:35:39.130Z,778.00
2018-08-23T07:36:40.254Z,776.00
2018-08-23T07:37:40.641Z,776.00
2018-08-23T07:38:41.082Z,776.00
2018-08-23T07:39:41.451Z,780.00
2018-08-23T07:40:41.843Z,783.00
2018-08-23T07:41:42.365Z,782.00
2018-08-23T07:42:42.615Z,783.00
2018-08-23T07:43:42.927Z,783.00
2018-08-23T07:44:43.075Z,782.00
2018-08-23T07:45:43.332Z,784.00
2018-08-23T07:46:43.724Z,786.00
2018-08-23T07:47:43.903Z,786.00
2018-08-23T07:48:44.211Z,787.00
2018-08-23T07:49:43.467Z,786.00
2018-08-23T07:50:43.719Z,786.00
2018-08-23T07:51:45.074Z,785.00
2018-08-23T07:52:45.599Z,786.00
2018-08-23T07:53:44.731Z,785.00
2018-08-23T07:54:45.925Z,786.00
2018-08-23T07:55:45.146Z,786.00
2018-08-23T07:56:46.497Z,785.00
2018-08-23T07:57:46.781Z,785.00
2018-08-23T07:58:47.080Z,785.00
2018-08-23T07:59:47.566Z,784.00
2018-08-23T08:00:48.258Z,787.00
2018-08-23T08:01:48.641Z,787.00
2018-08-23T08:02:49.008Z,786.00
2018-08-23T08:03:49.278Z,786.00
2018-08-23T08:04:49.483Z,786.00
2018-08-23T08:05:49.736Z,786.00
2018-08-23T08:06:49.962Z,790.00
2018-08-23T08:07:50.288Z,787.00
2018-08-23T08:08:50.568Z,786.00
2018-08-23T08:09:50.918Z,787.00
2018-08-23T08:10:51.116Z,786.00
2018-08-23T08:11:51.354Z,788.00
2018-08-23T08:12:52.095Z,790.00
2018-08-23T08:13:51.223Z,789.00
2018-08-23T08:14:52.484Z,792.00
2018-08-23T08:15:51.598Z,788.00
2018-08-23T08:16:53.178Z,787.00
2018-08-23T08:17:53.320Z,788.00
2018-08-23T08:18:52.584Z,787.00
2018-08-23T08:19:53.787Z,787.00
2018-08-23T08:20:54.092Z,786.00
2018-08-23T08:21:53.427Z,786.00
2018-08-23T08:22:55.021Z,786.00
2018-08-23T08:23:54.241Z,786.00
2018-08-23T08:24:55.999Z,786.00
2018-08-23T08:25:56.323Z,786.00
2018-08-23T08:26:04.411Z,786.00
2018-08-23T08:27:05.811Z,787.00
2018-08-23T08:28:05.131Z,787.00
2018-08-23T08:29:06.431Z,788.00
2018-08-23T08:30:06.673Z,787.00
2018-08-23T08:31:06.989Z,787.00
2018-08-23T08:32:07.153Z,786.00
2018-08-23T08:33:07.530Z,786.00
2018-08-23T08:34:07.818Z,787.00
2018-08-23T08:35:08.551Z,786.00
2018-08-23T08:36:07.758Z,786.00
2018-08-23T08:37:08.948Z,786.00
2018-08-23T08:38:09.315Z,787.00
2018-08-23T08:39:09.563Z,788.00
2018-08-23T08:40:09.763Z,788.00
2018-08-23T08:41:10.059Z,790.00
2018-08-23T08:42:10.247Z,792.00
2018-08-23T08:43:10.603Z,792.00
2018-08-23T08:44:10.800Z,793.00
2018-08-23T08:45:11.085Z,793.00
2018-08-23T08:46:11.383Z,794.00
2018-08-23T08:47:11.661Z,793.00
2018-08-23T08:48:11.942Z,786.00
2018-08-23T08:49:12.339Z,787.00
2018-08-23T08:50:12.579Z,784.00
2018-08-23T08:51:13.129Z,785.00
2018-08-23T08:52:13.386Z,794.00
2018-08-23T08:53:13.725Z,793.00
2018-08-23T08:54:13.230Z,794.00
2018-08-23T08:55:14.703Z,794.00
2018-08-23T08:56:15.047Z,794.00
2018-08-23T08:57:15.728Z,793.00
2018-08-23T08:58:15.318Z,794.00
2018-08-23T08:59:16.557Z,793.00
2018-08-23T09:00:16.816Z,793.00
2018-08-23T09:01:17.196Z,793.00
2018-08-23T09:02:17.565Z,793.00
2018-08-23T09:03:17.973Z,793.00
2018-08-23T09:04:17.302Z,793.00
2018-08-23T09:05:18.629Z,793.00
2018-08-23T09:06:19.146Z,793.00
2018-08-23T09:07:19.386Z,794.00
2018-08-23T09:08:19.656Z,793.00
2018-08-23T09:09:20.237Z,795.00
2018-08-23T09:10:20.518Z,794.00
2018-08-23T09:11:20.990Z,794.00
2018-08-23T09:12:21.362Z,793.00
2018-08-23T09:12:29.431Z,793.00
2018-08-23T09:13:31.040Z,794.00
2018-08-23T09:14:31.436Z,794.00
2018-08-23T09:15:32.285Z,793.00
2018-08-23T09:16:32.623Z,794.00
2018-08-23T09:17:33.045Z,793.00
2018-08-23T09:18:33.481Z,792.00
2018-08-23T09:19:32.695Z,792.00
2018-08-23T09:20:34.150Z,792.00
2018-08-23T09:21:33.325Z,792.00
2018-08-23T09:22:34.870Z,793.00
2018-08-23T09:23:35.366Z,793.00
2018-08-23T09:24:35.575Z,794.00
2018-08-23T09:25:35.812Z,794.00
2018-08-23T09:26:36.072Z,794.00
2018-08-23T09:27:36.535Z,794.00
2018-08-23T09:28:36.793Z,795.00
2018-08-23T09:29:37.091Z,794.00
2018-08-23T09:30:37.590Z,793.00
2018-08-23T09:31:37.861Z,794.00
2018-08-23T09:32:38.209Z,793.00
2018-08-23T09:33:38.516Z,793.00
2018-08-23T09:34:38.743Z,793.00
2018-08-23T09:35:39.206Z,793.00
2018-08-23T09:36:39.785Z,792.00
2018-08-23T09:37:40.213Z,795.00
2018-08-23T09:38:40.584Z,793.00
2018-08-23T09:39:41.139Z,793.00
2018-08-23T09:40:41.604Z,792.00
2018-08-23T09:41:42.063Z,793.00
2018-08-23T09:42:42.789Z,792.00
2018-08-23T09:43:43.335Z,788.00
2018-08-23T09:44:43.583Z,793.00
2018-08-23T09:45:44.242Z,794.00
2018-08-23T09:46:44.870Z,796.00
2018-08-23T09:47:45.659Z,790.00
2018-08-23T09:48:45.680Z,793.00
2018-08-23T09:49:45.945Z,795.00
2018-08-23T09:50:46.371Z,796.00
2018-08-23T09:51:45.590Z,796.00
2018-08-23T09:52:46.906Z,795.00
2018-08-23T09:53:47.089Z,795.00
2018-08-23T09:54:47.632Z,794.00
2018-08-23T09:55:47.874Z,794.00
2018-08-23T09:56:48.222Z,794.00
2018-08-23T09:57:48.885Z,796.00
2018-08-23T09:57:57.578Z,796.00
2018-08-23T09:58:59.046Z,796.00
2018-08-23T09:59:58.304Z,797.00
2018-08-23T10:00:59.475Z,797.00
2018-08-23T10:01:59.835Z,797.00
2018-08-23T10:03:00.213Z,796.00
2018-08-23T10:04:00.494Z,796.00
2018-08-23T10:05:00.973Z,796.00
2018-08-23T10:06:01.321Z,796.00
2018-08-23T10:07:02.242Z,798.00
2018-08-23T10:08:02.689Z,798.00
2018-08-23T10:09:02.965Z,798.00
2018-08-23T10:10:03.518Z,798.00
2018-08-23T10:11:03.743Z,797.00
2018-08-23T10:12:04.393Z,796.00
2018-08-23T10:13:04.638Z,797.00
2018-08-23T10:14:04.849Z,796.00
2018-08-23T10:15:05.264Z,795.00
2018-08-23T10:16:05.482Z,796.00
2018-08-23T10:17:06.073Z,796.00
2018-08-23T10:18:06.319Z,796.00
2018-08-23T10:19:06.912Z,795.00
2018-08-23T10:20:07.214Z,794.00
2018-08-23T10:21:07.642Z,795.00
2018-08-23T10:22:08.292Z,796.00
2018-08-23T10:23:08.419Z,795.00
2018-08-23T10:24:08.689Z,795.00
2018-08-23T10:25:08.892Z,796.00
2018-08-23T10:26:09.130Z,797.00
2018-08-23T10:27:09.408Z,794.00
2018-08-23T10:28:10.278Z,793.00
2018-08-23T10:29:11.171Z,793.00
2018-08-23T10:30:11.380Z,794.00
2018-08-23T10:31:15.615Z,794.00
2018-08-23T10:32:11.217Z,795.00
2018-08-23T10:33:11.406Z,794.00
2018-08-23T10:34:12.778Z,794.00
2018-08-23T10:35:13.114Z,792.00
2018-08-23T10:36:13.362Z,792.00
2018-08-23T10:37:14.326Z,792.00
2018-08-23T10:38:14.705Z,790.00
2018-08-23T10:39:13.946Z,788.00
2018-08-23T10:40:15.722Z,788.00
2018-08-23T10:41:15.911Z,792.00
2018-08-23T10:42:16.158Z,794.00
2018-08-23T10:43:16.464Z,793.00
2018-08-23T10:43:27.518Z,793.00
2018-08-23T10:44:28.723Z,793.00
2018-08-23T10:45:28.058Z,793.00
2018-08-23T10:46:29.320Z,794.00
2018-08-23T10:47:29.554Z,793.00
2018-08-23T10:48:29.805Z,793.00
2018-08-23T10:49:30.116Z,793.00
2018-08-23T10:50:30.469Z,793.00
2018-08-23T10:51:29.831Z,794.00
2018-08-23T10:52:31.023Z,792.00
2018-08-23T10:53:31.207Z,792.00
2018-08-23T10:54:30.460Z,793.00
2018-08-23T10:55:31.709Z,794.00
2018-08-23T10:56:31.974Z,793.00
2018-08-23T10:57:32.867Z,792.00
2018-08-23T10:58:33.235Z,788.00
2018-08-23T10:59:33.442Z,789.00
2018-08-23T11:00:33.673Z,792.00
2018-08-23T11:01:34.155Z,792.00
2018-08-23T11:02:35.086Z,792.00
2018-08-23T11:03:35.497Z,794.00
2018-08-23T11:04:35.640Z,793.00
2018-08-23T11:05:35.890Z,796.00
2018-08-23T11:06:36.362Z,796.00
2018-08-23T11:07:36.831Z,794.00
2018-08-23T11:08:37.256Z,794.00
2018-08-23T11:09:37.543Z,796.00
2018-08-23T11:10:38.008Z,796.00
2018-08-23T11:11:38.085Z,796.00
2018-08-23T11:12:38.452Z,795.00
2018-08-23T11:13:38.583Z,794.00
2018-08-23T11:14:38.913Z,795.00
2018-08-23T11:15:39.177Z,798.00
2018-08-23T11:16:39.531Z,801.00
2018-08-23T11:17:38.680Z,800.00
2018-08-23T11:18:40.051Z,798.00
2018-08-23T11:19:40.491Z,800.00
2018-08-23T11:20:41.007Z,798.00
2018-08-23T11:21:41.283Z,798.00
2018-08-23T11:22:41.623Z,797.00
2018-08-23T11:23:41.982Z,795.00
2018-08-23T11:24:42.168Z,795.00
2018-08-23T11:25:42.525Z,794.00
2018-08-23T11:26:42.839Z,793.00
2018-08-23T11:27:43.091Z,796.00
2018-08-23T11:28:43.824Z,797.00
2018-08-23T11:28:52.710Z,796.00
2018-08-23T11:29:53.890Z,794.00
2018-08-23T11:30:53.919Z,793.00
2018-08-23T11:31:54.246Z,794.00
2018-08-23T11:32:54.440Z,795.00
2018-08-23T11:33:56.135Z,797.00
2018-08-23T11:34:56.458Z,797.00
2018-08-23T11:35:55.656Z,797.00
2018-08-23T11:36:56.967Z,797.00
2018-08-23T11:37:57.346Z,796.00
2018-08-23T11:38:57.543Z,796.00
2018-08-23T11:39:57.941Z,798.00
2018-08-23T11:40:58.385Z,797.00
2018-08-23T11:41:58.887Z,798.00
2018-08-23T11:42:59.437Z,800.00
2018-08-23T11:43:59.652Z,800.00
2018-08-23T11:44:59.964Z,798.00
2018-08-23T11:46:00.324Z,797.00
2018-08-23T11:47:00.599Z,796.00
2018-08-23T11:48:00.788Z,795.00
2018-08-23T11:49:01.597Z,796.00
2018-08-23T11:50:00.969Z,796.00
2018-08-23T11:51:02.341Z,797.00
2018-08-23T11:52:02.668Z,798.00
2018-08-23T11:53:03.191Z,796.00
2018-08-23T11:54:02.508Z,797.00
2018-08-23T11:55:03.745Z,795.00
2018-08-23T11:56:04.080Z,794.00
2018-08-23T11:57:04.463Z,792.00
2018-08-23T11:58:04.734Z,788.00
2018-08-23T11:59:03.970Z,787.00
2018-08-23T12:00:04.177Z,788.00
2018-08-23T12:01:04.376Z,788.00
2018-08-23T12:02:05.752Z,792.00
2018-08-23T12:03:06.066Z,788.00
2018-08-23T12:04:06.495Z,787.00
2018-08-23T12:05:06.756Z,787.00
2018-08-23T12:06:06.927Z,786.00
2018-08-23T12:07:07.296Z,785.00
2018-08-23T12:08:07.615Z,786.00
2018-08-23T12:09:07.820Z,786.00
2018-08-23T12:10:07.356Z,788.00
2018-08-23T12:11:07.739Z,787.00
2018-08-23T12:12:09.124Z,788.00
2018-08-23T12:13:08.440Z,792.00
2018-08-23T12:14:10.160Z,792.00
2018-08-23T12:15:10.366Z,788.00
2018-08-23T12:16:10.673Z,788.00
2018-08-23T12:17:11.263Z,788.00
2018-08-23T12:18:12.007Z,790.00
2018-08-23T12:19:12.297Z,796.00
2018-08-23T12:20:12.786Z,796.00
2018-08-23T12:21:13.153Z,795.00